Terminal Aerodrome Forecast
Issued by NWS

Home | Current Version | Previous Version | Text Only | Print | Product List | Glossary Off
Versions: 1 2 3 4 5 6 7 8 9 10 11 12 13 14

991
FTUS43 KTOP 182326
TAFFOE
TAF
KFOE 182326Z 1900/1924 18009KT P6SM BKN250
     FM190300 20008KT P6SM BKN250 WS008/23045KT
     FM191400 19010KT P6SM BKN250
     FM191600 20013G19KT P6SM BKN250=

USA.gov is the U.S. government's official web portal to all federal, state and local government web resources and services.